aviador You're here:

KDVP Decoded Metar

SLAYTON in MN, USA
Report Time2017-12-18 08:43:00
UTC Time2017-12-18 09:05:40
Flight Rules vfr VFR
Wind190° at 08 kt
W.Decomp.*RWY 17: 7.7 kt HW 2.2 kt RCW
W.Rank190° ranks 5
Current wind is below 190° avg. (11.3)
Visibility9999 m
Phenomena:N/A
Clouds:N/A
Expected CloudBase > 400 ft AGL from Temp-Dew spread
CeilingNone
Temp-2°C (ISA -14)
Dew Point-3°C (93% RH)
AAT-7.3°C
QNH1011 hPa
Density Alt82 ft
Elevation1,624 ft
Report Wrong Elevation
Raw Report
KDVP 180843Z AUTO 19008KT 10SM CLR M02/M03 A2985 RMK AO2
T10251035=

Extra information for KDVP:More info

Metar Taf Metar & Taf Last 4 Metars F.Rules Stats Wind Profile Meteogram Temp Stats Airport Information Weather charts Add Link Nearby VenuesMetar ALERT Operation Metar Decoded Social comments

AIRNAV info for KDVP